createdAt,value
2023-04-08T00:01:50.242Z,2.50
2023-04-08T00:04:18.375Z,2.50
2023-04-08T00:06:46.566Z,2.50
2023-04-08T00:09:14.704Z,2.50
2023-04-08T00:11:43.024Z,2.50
2023-04-08T00:14:11.003Z,2.50
2023-04-08T00:16:39.049Z,2.50
2023-04-08T00:19:08.470Z,2.50
2023-04-08T00:21:36.684Z,2.60
2023-04-08T00:24:04.953Z,2.60
2023-04-08T00:26:32.972Z,2.60
2023-04-08T00:29:01.080Z,2.70
2023-04-08T00:31:29.240Z,2.70
2023-04-08T00:33:57.553Z,2.70
2023-04-08T00:36:27.770Z,2.70
2023-04-08T00:38:56.542Z,2.70
2023-04-08T00:41:24.573Z,2.80
2023-04-08T00:43:53.697Z,2.80
2023-04-08T00:46:23.320Z,2.80
2023-04-08T00:48:51.854Z,2.80
2023-04-08T00:51:20.474Z,2.80
2023-04-08T00:53:49.791Z,2.80
2023-04-08T00:56:17.786Z,2.90
2023-04-08T00:58:46.251Z,2.90
2023-04-08T01:01:20.463Z,3.00
2023-04-08T01:03:56.128Z,3.00
2023-04-08T01:06:31.688Z,3.10
2023-04-08T01:09:01.924Z,3.10
2023-04-08T01:11:32.324Z,3.20
2023-04-08T01:14:02.055Z,3.30
2023-04-08T01:16:30.479Z,3.30
2023-04-08T01:18:58.637Z,3.40
2023-04-08T01:21:27.766Z,3.40
2023-04-08T01:24:06.367Z,3.50
2023-04-08T01:26:37.147Z,3.50
2023-04-08T01:29:06.368Z,3.60
2023-04-08T01:31:35.168Z,3.60
2023-04-08T01:34:06.460Z,3.60
2023-04-08T01:36:36.746Z,3.60
2023-04-08T01:39:06.720Z,3.60
2023-04-08T01:41:38.619Z,3.70
2023-04-08T01:44:07.589Z,3.70
2023-04-08T01:46:36.925Z,3.70
2023-04-08T01:49:06.840Z,3.70
2023-04-08T01:51:37.165Z,3.70
2023-04-08T01:54:07.573Z,3.70
2023-04-08T01:56:43.547Z,3.70
2023-04-08T01:59:15.616Z,3.70
2023-04-08T02:01:45.183Z,3.80
2023-04-08T02:04:15.066Z,3.80
2023-04-08T02:06:43.540Z,3.80
2023-04-08T02:09:11.498Z,3.80
2023-04-08T02:11:40.811Z,3.80
2023-04-08T02:14:08.877Z,3.80
2023-04-08T02:16:43.853Z,3.90
2023-04-08T02:19:16.708Z,3.90
2023-04-08T02:21:47.829Z,3.90
2023-04-08T02:24:18.715Z,3.90
2023-04-08T02:26:52.292Z,3.90
2023-04-08T02:29:20.647Z,3.90
2023-04-08T02:31:49.740Z,3.90
2023-04-08T02:34:22.143Z,4.00
2023-04-08T02:36:51.167Z,4.00
2023-04-08T02:39:19.708Z,4.00
2023-04-08T02:41:49.045Z,4.00
2023-04-08T02:44:17.045Z,4.00
2023-04-08T02:46:45.047Z,4.00
2023-04-08T02:49:13.048Z,4.00
2023-04-08T02:51:41.255Z,4.00
2023-04-08T02:54:09.211Z,4.00
2023-04-08T02:56:37.207Z,3.90
2023-04-08T02:59:06.686Z,3.90
2023-04-08T03:01:34.772Z,3.90
2023-04-08T03:04:03.326Z,3.90
2023-04-08T03:06:31.494Z,3.80
2023-04-08T03:08:59.483Z,3.80
2023-04-08T03:11:27.418Z,3.80
2023-04-08T03:13:55.447Z,3.70
2023-04-08T03:16:25.453Z,3.70
2023-04-08T03:18:53.477Z,3.70
2023-04-08T03:21:21.394Z,3.70
2023-04-08T03:23:49.455Z,3.60
2023-04-08T03:26:17.483Z,3.60
2023-04-08T03:28:45.827Z,3.50
2023-04-08T03:31:14.122Z,3.50
2023-04-08T03:33:43.476Z,3.50
2023-04-08T03:36:12.187Z,3.50
2023-04-08T03:38:40.198Z,3.40
2023-04-08T03:41:08.593Z,3.40
2023-04-08T03:43:38.023Z,3.40
2023-04-08T03:46:06.283Z,3.40
2023-04-08T03:48:34.385Z,3.40
2023-04-08T03:51:03.790Z,3.40
2023-04-08T03:53:31.897Z,3.40
2023-04-08T03:56:00.054Z,3.50
2023-04-08T03:58:28.042Z,3.50
2023-04-08T04:00:55.952Z,3.50
2023-04-08T04:03:24.007Z,3.40
2023-04-08T04:05:52.941Z,3.50
2023-04-08T04:08:22.272Z,3.50
2023-04-08T04:10:50.226Z,3.50
2023-04-08T04:13:19.529Z,3.50
2023-04-08T04:15:47.567Z,3.50
2023-04-08T04:18:15.772Z,3.60
2023-04-08T04:20:44.953Z,3.60
2023-04-08T04:23:13.119Z,3.60
2023-04-08T04:25:44.287Z,3.60
2023-04-08T04:28:12.277Z,3.60
2023-04-08T04:30:41.125Z,3.70
2023-04-08T04:33:09.307Z,3.70
2023-04-08T04:35:37.291Z,3.70
2023-04-08T04:38:08.094Z,3.70
2023-04-08T04:40:36.181Z,3.70
2023-04-08T04:43:06.236Z,3.80
2023-04-08T04:45:34.231Z,3.70
2023-04-08T04:48:03.512Z,3.80
2023-04-08T04:50:31.661Z,3.80
2023-04-08T04:52:59.678Z,3.80
2023-04-08T04:55:27.968Z,3.80
2023-04-08T04:57:55.882Z,3.80
2023-04-08T05:00:25.367Z,3.90
2023-04-08T05:02:53.585Z,3.90
2023-04-08T05:05:21.788Z,3.90
2023-04-08T05:07:51.791Z,3.90
2023-04-08T05:10:20.017Z,4.00
2023-04-08T05:12:47.936Z,4.00
2023-04-08T05:15:15.886Z,4.00
2023-04-08T05:17:45.498Z,4.00
2023-04-08T05:20:15.847Z,4.00
2023-04-08T05:22:45.390Z,4.00
2023-04-08T05:25:13.459Z,4.00
2023-04-08T05:27:41.641Z,4.00
2023-04-08T05:30:10.741Z,4.10
2023-04-08T05:32:38.885Z,4.10
2023-04-08T05:35:09.654Z,4.10
2023-04-08T05:37:37.643Z,4.10
2023-04-08T05:40:06.702Z,4.20
2023-04-08T05:42:34.676Z,4.20
2023-04-08T05:45:03.428Z,4.20
2023-04-08T05:47:31.509Z,4.20
2023-04-08T05:49:59.534Z,4.30
2023-04-08T05:52:28.921Z,4.30
2023-04-08T05:54:56.938Z,4.40
2023-04-08T05:57:25.208Z,4.30
2023-04-08T05:59:53.408Z,4.40
2023-04-08T06:02:21.644Z,4.60
2023-04-08T06:04:49.698Z,4.60
2023-04-08T06:07:17.763Z,4.60
2023-04-08T06:09:47.639Z,4.60
2023-04-08T06:12:15.637Z,4.70
2023-04-08T06:14:43.568Z,4.70
2023-04-08T06:17:11.796Z,4.80
2023-04-08T06:19:39.753Z,4.90
2023-04-08T06:22:08.387Z,5.00
2023-04-08T06:24:36.282Z,5.00
2023-04-08T06:27:06.615Z,5.10
2023-04-08T06:29:34.765Z,5.20
2023-04-08T06:32:02.802Z,5.20
2023-04-08T06:34:31.907Z,5.30
2023-04-08T06:36:59.926Z,5.30
2023-04-08T06:39:27.883Z,5.20
2023-04-08T06:41:56.140Z,5.20
2023-04-08T06:44:25.531Z,5.20
2023-04-08T06:46:53.923Z,5.30
2023-04-08T06:49:21.894Z,5.30
2023-04-08T06:51:50.380Z,5.40
2023-04-08T06:54:18.333Z,5.40
2023-04-08T06:56:46.827Z,5.50
2023-04-08T06:59:16.484Z,5.40
2023-04-08T07:01:46.755Z,5.40
2023-04-08T07:04:14.863Z,5.50
2023-04-08T07:06:42.865Z,5.50
2023-04-08T07:09:10.853Z,5.50
2023-04-08T07:11:39.642Z,5.60
2023-04-08T07:14:07.620Z,5.60
2023-04-08T07:16:35.703Z,5.70
2023-04-08T07:19:05.206Z,5.70
2023-04-08T07:21:33.162Z,5.70
2023-04-08T07:24:01.764Z,5.60
2023-04-08T07:26:29.858Z,5.50
2023-04-08T07:28:57.901Z,5.50
2023-04-08T07:31:25.981Z,5.50
2023-04-08T07:33:54.029Z,5.50
2023-04-08T07:36:23.550Z,5.60
2023-04-08T07:38:52.173Z,5.60
2023-04-08T07:41:20.925Z,5.70
2023-04-08T07:43:48.936Z,5.70
2023-04-08T07:46:17.034Z,5.70
2023-04-08T07:48:45.432Z,5.70
2023-04-08T07:51:13.573Z,5.70
2023-04-08T07:53:43.063Z,5.60
2023-04-08T07:56:15.115Z,5.60
2023-04-08T07:58:43.716Z,5.40
2023-04-08T08:01:20.288Z,5.40
2023-04-08T08:03:49.063Z,5.30
2023-04-08T08:06:17.760Z,5.20
2023-04-08T08:08:47.169Z,5.10
2023-04-08T08:11:15.174Z,5.10
2023-04-08T08:13:43.798Z,5.00
2023-04-08T08:16:12.515Z,4.90
2023-04-08T08:18:41.356Z,5.00
2023-04-08T08:21:09.994Z,5.10
2023-04-08T08:23:38.481Z,5.20
2023-04-08T08:26:10.284Z,5.30
2023-04-08T08:28:38.610Z,5.40
2023-04-08T08:31:07.102Z,5.50
2023-04-08T08:33:35.706Z,5.50
2023-04-08T08:36:05.184Z,5.50
2023-04-08T08:38:33.641Z,5.60
2023-04-08T08:41:04.160Z,5.70
2023-04-08T08:43:34.586Z,5.70
2023-04-08T08:46:02.674Z,5.80
2023-04-08T08:48:30.755Z,5.80
2023-04-08T08:50:59.373Z,5.90
2023-04-08T08:53:32.767Z,6.00
2023-04-08T08:58:34.821Z,6.00
2023-04-08T09:01:03.011Z,6.00
2023-04-08T09:03:31.234Z,6.20
2023-04-08T09:06:00.750Z,6.30
2023-04-08T09:08:33.681Z,6.40
2023-04-08T09:11:17.108Z,6.60
2023-04-08T09:13:47.808Z,6.60
2023-04-08T09:16:18.238Z,6.70
2023-04-08T09:18:48.627Z,6.70
2023-04-08T09:21:18.776Z,6.80
2023-04-08T09:23:48.873Z,6.70
2023-04-08T09:26:19.465Z,6.40
2023-04-08T09:29:08.171Z,6.30
2023-04-08T09:31:45.351Z,6.20
2023-04-08T09:34:15.327Z,6.10
2023-04-08T09:36:44.588Z,6.10
2023-04-08T09:39:12.822Z,6.10
2023-04-08T09:41:41.774Z,6.10
2023-04-08T09:44:12.726Z,6.20
2023-04-08T09:46:48.432Z,6.30
2023-04-08T09:49:24.921Z,6.30
2023-04-08T09:52:00.802Z,6.40
2023-04-08T09:54:39.224Z,6.40
2023-04-08T09:57:12.766Z,6.40
2023-04-08T09:59:50.070Z,6.30
2023-04-08T10:02:25.629Z,6.10
2023-04-08T10:04:56.717Z,6.20
2023-04-08T10:07:24.885Z,6.00
2023-04-08T10:09:53.224Z,5.80
2023-04-08T10:12:21.622Z,5.80
2023-04-08T10:15:23.977Z,5.70
2023-04-08T10:17:53.658Z,5.80
2023-04-08T10:20:44.755Z,5.60
2023-04-08T10:23:14.355Z,5.60
2023-04-08T10:25:43.526Z,5.70
2023-04-08T10:28:27.597Z,5.50
2023-04-08T10:30:57.445Z,5.70
2023-04-08T10:33:34.596Z,5.60
2023-04-08T10:36:11.716Z,5.60
2023-04-08T10:38:39.980Z,5.40
2023-04-08T10:41:08.402Z,5.50
2023-04-08T10:43:37.152Z,5.40
2023-04-08T10:46:06.412Z,5.40
2023-04-08T10:48:36.014Z,5.40
2023-04-08T10:51:05.317Z,5.30
2023-04-08T10:53:34.945Z,5.20
2023-04-08T10:56:07.479Z,5.20
2023-04-08T10:58:36.748Z,5.20
2023-04-08T11:01:06.830Z,5.20
2023-04-08T11:03:38.042Z,5.20
2023-04-08T11:06:07.509Z,5.30
2023-04-08T11:08:36.753Z,5.50
2023-04-08T11:11:09.077Z,5.60
2023-04-08T11:13:37.977Z,5.70
2023-04-08T11:16:17.725Z,5.60
2023-04-08T11:18:48.511Z,5.70
2023-04-08T11:21:17.389Z,5.50
2023-04-08T11:23:45.530Z,5.40
2023-04-08T11:26:14.767Z,5.40
2023-04-08T11:28:43.434Z,5.30
2023-04-08T11:31:12.580Z,5.30
2023-04-08T11:33:49.229Z,5.30
2023-04-08T11:36:19.590Z,5.30
2023-04-08T11:38:48.265Z,5.30
2023-04-08T11:41:17.634Z,5.30
2023-04-08T11:43:58.301Z,5.30
2023-04-08T11:46:26.444Z,5.30
2023-04-08T11:49:07.989Z,5.30
2023-04-08T11:51:38.052Z,5.20
2023-04-08T11:54:07.443Z,5.20
2023-04-08T11:56:47.251Z,5.10
2023-04-08T11:59:15.542Z,5.10
2023-04-08T12:01:45.386Z,5.20
2023-04-08T12:04:15.057Z,5.20
2023-04-08T12:06:43.674Z,5.30
2023-04-08T12:09:11.712Z,5.40
2023-04-08T12:11:39.819Z,5.30
2023-04-08T12:14:08.277Z,5.20
2023-04-08T12:16:36.373Z,5.00
2023-04-08T12:19:04.432Z,5.00
2023-04-08T12:21:33.960Z,5.00
2023-04-08T12:24:02.002Z,4.90
2023-04-08T12:26:30.796Z,4.90
2023-04-08T12:28:58.781Z,4.90
2023-04-08T12:31:27.799Z,4.90
2023-04-08T12:33:55.868Z,4.80
2023-04-08T12:36:23.917Z,4.80
2023-04-08T12:38:53.860Z,4.90
2023-04-08T12:41:21.819Z,4.90
2023-04-08T12:43:49.821Z,4.90
2023-04-08T12:46:17.801Z,4.90
2023-04-08T12:51:15.668Z,5.00
2023-04-08T12:53:43.724Z,5.10
2023-04-08T12:56:13.132Z,5.20
2023-04-08T12:58:41.457Z,5.00
2023-04-08T13:01:09.592Z,4.90
2023-04-08T13:03:38.445Z,5.10
2023-04-08T13:06:06.683Z,5.10
2023-04-08T13:08:38.951Z,5.10
2023-04-08T13:11:07.201Z,5.20
2023-04-08T13:13:36.751Z,5.10
2023-04-08T13:16:05.120Z,5.10
2023-04-08T13:18:33.161Z,5.10
2023-04-08T13:21:01.250Z,5.20
2023-04-08T13:23:29.194Z,5.30
2023-04-08T13:25:57.147Z,5.30
2023-04-08T13:28:25.719Z,5.30
2023-04-08T13:30:55.819Z,5.40
2023-04-08T13:33:23.756Z,5.40
2023-04-08T13:35:51.744Z,5.50
2023-04-08T13:38:19.890Z,5.50
2023-04-08T13:40:49.449Z,5.60
2023-04-08T13:43:17.505Z,5.50
2023-04-08T13:45:46.202Z,5.60
2023-04-08T13:48:15.786Z,5.60
2023-04-08T13:50:44.030Z,5.70
2023-04-08T13:53:12.249Z,5.70
2023-04-08T13:55:40.870Z,5.70
2023-04-08T13:58:17.186Z,5.80
2023-04-08T14:00:51.316Z,5.80
2023-04-08T14:03:21.327Z,5.90
2023-04-08T14:05:50.883Z,6.00
2023-04-08T14:08:25.064Z,6.00
2023-04-08T14:10:53.291Z,6.00
2023-04-08T14:13:21.426Z,5.90
2023-04-08T14:15:49.883Z,5.90
2023-04-08T14:18:18.349Z,5.90
2023-04-08T14:20:47.752Z,5.80
2023-04-08T14:23:16.920Z,5.70
2023-04-08T14:25:45.218Z,5.60
2023-04-08T14:28:13.362Z,5.60
2023-04-08T14:30:41.726Z,5.70
2023-04-08T14:33:09.797Z,5.70
2023-04-08T14:35:38.118Z,5.70
2023-04-08T14:38:08.097Z,5.70
2023-04-08T14:40:37.578Z,5.70
2023-04-08T14:43:06.276Z,5.70
2023-04-08T14:45:34.211Z,5.70
2023-04-08T14:48:02.285Z,5.70
2023-04-08T14:50:31.013Z,5.70
2023-04-08T14:52:59.017Z,5.70
2023-04-08T14:55:28.647Z,5.70
2023-04-08T14:57:56.894Z,5.70
2023-04-08T15:00:25.307Z,5.60
2023-04-08T15:02:54.136Z,5.50
2023-04-08T15:05:22.268Z,5.60
2023-04-08T15:07:50.286Z,5.60
2023-04-08T15:10:18.329Z,5.50
2023-04-08T15:12:47.817Z,5.50
2023-04-08T15:15:16.314Z,5.50
2023-04-08T15:17:44.316Z,5.50
2023-04-08T15:20:13.446Z,5.50
2023-04-08T15:22:41.531Z,5.60
2023-04-08T15:25:10.675Z,5.50
2023-04-08T15:27:38.986Z,5.50
2023-04-08T15:30:12.221Z,5.50
2023-04-08T15:32:41.373Z,5.50
2023-04-08T15:35:10.903Z,5.60
2023-04-08T15:37:38.982Z,5.70
2023-04-08T15:40:08.533Z,5.60
2023-04-08T15:42:36.648Z,5.60
2023-04-08T15:45:05.255Z,5.70
2023-04-08T15:47:35.228Z,5.60
2023-04-08T15:50:03.808Z,5.60
2023-04-08T15:52:32.950Z,5.70
2023-04-08T15:55:02.463Z,5.60
2023-04-08T15:57:32.165Z,5.60
2023-04-08T16:00:00.337Z,5.70
2023-04-08T16:02:29.799Z,5.70
2023-04-08T16:04:59.449Z,5.80
2023-04-08T16:07:27.628Z,5.80
2023-04-08T16:09:55.625Z,5.80
2023-04-08T16:12:25.532Z,5.80
2023-04-08T16:14:53.710Z,5.80
2023-04-08T16:17:21.980Z,5.80
2023-04-08T16:19:51.517Z,5.70
2023-04-08T16:22:21.267Z,5.80
2023-04-08T16:24:49.472Z,5.80
2023-04-08T16:27:18.128Z,5.70
2023-04-08T16:29:46.721Z,5.70
2023-04-08T16:32:14.722Z,5.70
2023-04-08T16:34:42.722Z,5.70
2023-04-08T16:37:10.851Z,5.60
2023-04-08T16:39:44.237Z,5.60
2023-04-08T16:42:12.186Z,5.50
2023-04-08T16:44:40.749Z,5.50
2023-04-08T16:47:08.787Z,5.50
2023-04-08T16:49:36.835Z,5.60
2023-04-08T16:52:05.021Z,5.50
2023-04-08T16:54:33.021Z,5.50
2023-04-08T16:57:02.682Z,5.50
2023-04-08T16:59:30.808Z,5.50
2023-04-08T17:01:58.852Z,5.50
2023-04-08T17:04:27.157Z,5.40
2023-04-08T17:06:55.309Z,5.40
2023-04-08T17:09:24.656Z,5.40
2023-04-08T17:11:52.749Z,5.30
2023-04-08T17:14:22.281Z,5.40
2023-04-08T17:16:53.735Z,5.40
2023-04-08T17:19:21.829Z,5.40
2023-04-08T17:21:49.874Z,5.30
2023-04-08T17:24:17.883Z,5.30
2023-04-08T17:26:46.256Z,5.30
2023-04-08T17:29:14.489Z,5.40
2023-04-08T17:31:44.345Z,5.30
2023-04-08T17:34:12.422Z,5.30
2023-04-08T17:36:40.425Z,5.20
2023-04-08T17:39:08.696Z,5.20
2023-04-08T17:41:40.136Z,5.20
2023-04-08T17:44:08.909Z,5.20
2023-04-08T17:46:37.270Z,5.20
2023-04-08T17:49:06.664Z,5.20
2023-04-08T17:51:34.758Z,5.20
2023-04-08T17:54:03.299Z,5.10
2023-04-08T17:56:31.322Z,5.20
2023-04-08T17:58:59.361Z,5.20
2023-04-08T18:01:27.373Z,5.20
2023-04-08T18:03:56.084Z,5.10
2023-04-08T18:06:26.370Z,5.20
2023-04-08T18:08:54.344Z,5.20
2023-04-08T18:11:24.255Z,5.20
2023-04-08T18:13:52.589Z,5.20
2023-04-08T18:16:22.065Z,5.20
2023-04-08T18:18:51.066Z,5.20
2023-04-08T18:21:19.061Z,5.20
2023-04-08T18:23:48.532Z,5.20
2023-04-08T18:26:16.842Z,5.20
2023-04-08T18:28:44.924Z,5.20
2023-04-08T18:31:13.355Z,5.20
2023-04-08T18:33:41.519Z,5.20
2023-04-08T18:36:10.452Z,5.20
2023-04-08T18:38:40.744Z,5.30
2023-04-08T18:41:10.182Z,5.30
2023-04-08T18:43:41.460Z,5.20
2023-04-08T18:46:09.505Z,5.20
2023-04-08T18:48:37.679Z,5.20
2023-04-08T18:51:05.842Z,5.20
2023-04-08T18:53:33.992Z,5.20
2023-04-08T18:56:02.738Z,5.20
2023-04-08T18:58:33.479Z,5.20
2023-04-08T19:01:01.491Z,5.20
2023-04-08T19:03:29.656Z,5.20
2023-04-08T19:05:57.729Z,5.20
2023-04-08T19:08:26.383Z,5.30
2023-04-08T19:10:54.526Z,5.20
2023-04-08T19:13:23.836Z,5.20
2023-04-08T19:15:53.506Z,5.20
2023-04-08T19:18:21.841Z,5.20
2023-04-08T19:20:50.265Z,5.20
2023-04-08T19:23:18.994Z,5.20
2023-04-08T19:25:47.344Z,5.10
2023-04-08T19:28:15.510Z,5.10
2023-04-08T19:30:43.521Z,5.10
2023-04-08T19:33:13.302Z,5.00
2023-04-08T19:35:41.871Z,5.00
2023-04-08T19:38:09.967Z,4.90
2023-04-08T19:40:38.053Z,4.90
2023-04-08T19:43:06.515Z,4.90
2023-04-08T19:45:35.289Z,4.90
2023-04-08T19:48:03.468Z,4.80
2023-04-08T19:50:33.090Z,4.80
2023-04-08T19:53:01.659Z,4.80
2023-04-08T19:55:29.877Z,4.80
2023-04-08T19:57:58.815Z,4.80
2023-04-08T20:00:29.254Z,4.80
2023-04-08T20:02:58.724Z,4.80
2023-04-08T20:05:26.964Z,4.80
2023-04-08T20:07:56.348Z,4.80
2023-04-08T20:10:25.280Z,4.80
2023-04-08T20:12:53.941Z,4.70
2023-04-08T20:15:25.246Z,4.80
2023-04-08T20:17:54.057Z,4.80
2023-04-08T20:20:22.825Z,4.80
2023-04-08T20:22:51.416Z,4.80
2023-04-08T20:25:21.081Z,4.80
2023-04-08T20:27:49.236Z,4.80
2023-04-08T20:30:17.332Z,4.80
2023-04-08T20:32:45.422Z,4.80
2023-04-08T20:35:14.207Z,4.80
2023-04-08T20:37:42.272Z,4.80
2023-04-08T20:40:11.107Z,4.80
2023-04-08T20:42:43.937Z,4.80
2023-04-08T20:45:13.017Z,4.80
2023-04-08T20:47:42.722Z,4.80
2023-04-08T20:50:12.072Z,4.70
2023-04-08T20:52:40.305Z,4.70
2023-04-08T20:55:09.245Z,4.70
2023-04-08T20:57:37.413Z,4.70
2023-04-08T21:00:10.557Z,4.70
2023-04-08T21:02:43.410Z,4.70
2023-04-08T21:05:13.388Z,4.70
2023-04-08T21:07:44.402Z,4.70
2023-04-08T21:10:14.946Z,4.70
2023-04-08T21:12:42.924Z,4.70
2023-04-08T21:15:12.749Z,4.70
2023-04-08T21:17:40.943Z,4.70
2023-04-08T21:20:10.450Z,4.70
2023-04-08T21:22:38.896Z,4.70
2023-04-08T21:25:07.792Z,4.60
2023-04-08T21:27:35.910Z,4.60
2023-04-08T21:30:04.613Z,4.60
2023-04-08T21:32:34.651Z,4.60
2023-04-08T21:35:03.131Z,4.60
2023-04-08T21:37:31.283Z,4.60
2023-04-08T21:39:59.355Z,4.70
2023-04-08T21:42:27.684Z,4.70
2023-04-08T21:44:55.793Z,4.70
2023-04-08T21:47:24.237Z,4.60
2023-04-08T21:49:54.233Z,4.60
2023-04-08T21:52:22.278Z,4.60
2023-04-08T21:54:51.515Z,4.60
2023-04-08T21:57:19.857Z,4.60
2023-04-08T21:59:48.103Z,4.60
2023-04-08T22:02:16.389Z,4.50
2023-04-08T22:04:44.702Z,4.50
2023-04-08T22:07:14.114Z,4.50
2023-04-08T22:09:42.158Z,4.50
2023-04-08T22:12:10.940Z,4.50
2023-04-08T22:14:39.048Z,4.40
2023-04-08T22:17:07.178Z,4.40
2023-04-08T22:19:35.528Z,4.40
2023-04-08T22:22:03.486Z,4.40
2023-04-08T22:24:33.440Z,4.40
2023-04-08T22:27:01.436Z,4.40
2023-04-08T22:29:29.437Z,4.40
2023-04-08T22:31:57.438Z,4.40
2023-04-08T22:34:25.637Z,4.30
2023-04-08T22:36:54.518Z,4.30
2023-04-08T22:39:22.597Z,4.30
2023-04-08T22:41:52.049Z,4.30
2023-04-08T22:44:20.044Z,4.30
2023-04-08T22:46:48.044Z,4.30
2023-04-08T22:49:16.226Z,4.30
2023-04-08T22:51:44.369Z,4.30
2023-04-08T22:54:12.346Z,4.30
2023-04-08T22:56:40.392Z,4.30
2023-04-08T22:59:09.760Z,4.30
2023-04-08T23:01:41.170Z,4.30
2023-04-08T23:04:09.487Z,4.30
2023-04-08T23:06:37.502Z,4.30
2023-04-08T23:09:05.478Z,4.30
2023-04-08T23:11:33.453Z,4.30
2023-04-08T23:14:01.742Z,4.30
2023-04-08T23:16:33.151Z,4.20
2023-04-08T23:19:01.097Z,4.20
2023-04-08T23:21:29.193Z,4.20
2023-04-08T23:23:57.241Z,4.20
2023-04-08T23:26:25.483Z,4.20
2023-04-08T23:28:53.814Z,4.20
2023-04-08T23:31:22.177Z,4.20
2023-04-08T23:33:51.528Z,4.20
2023-04-08T23:36:19.523Z,4.20
2023-04-08T23:38:48.147Z,4.10
2023-04-08T23:41:16.124Z,4.10
2023-04-08T23:43:44.084Z,4.10
2023-04-08T23:46:12.113Z,4.10
2023-04-08T23:48:40.303Z,4.10
2023-04-08T23:51:11.871Z,4.10
2023-04-08T23:53:39.999Z,4.10
2023-04-08T23:56:09.494Z,4.10
2023-04-08T23:58:37.797Z,4.10
